sensor_id;sensor_type;location;lat;lon;timestamp;pressure;altitude;pressure_sealevel;temperature;humidity
46942;BME280;32676;52.630;4.896;2023-05-02T00:02:02;100950.97;;;10.55;79.67
46942;BME280;32676;52.630;4.896;2023-05-02T00:04:28;100935.31;;;10.52;78.86
46942;BME280;32676;52.630;4.896;2023-05-02T00:06:55;100938.84;;;10.51;78.21
46942;BME280;32676;52.630;4.896;2023-05-02T00:09:21;100930.13;;;10.49;77.58
46942;BME280;32676;52.630;4.896;2023-05-02T00:11:49;100923.19;;;10.48;77.37
46942;BME280;32676;52.630;4.896;2023-05-02T00:14:15;100914.47;;;10.46;77.14
46942;BME280;32676;52.630;4.896;2023-05-02T00:16:41;100887.53;;;10.39;76.78
46942;BME280;32676;52.630;4.896;2023-05-02T00:19:07;100871.00;;;10.35;76.77
46942;BME280;32676;52.630;4.896;2023-05-02T00:21:34;100859.75;;;10.32;76.86
46942;BME280;32676;52.630;4.896;2023-05-02T00:24:00;100860.63;;;10.29;76.64
46942;BME280;32676;52.630;4.896;2023-05-02T00:26:26;100853.66;;;10.30;76.34
46942;BME280;32676;52.630;4.896;2023-05-02T00:28:54;100839.75;;;10.26;76.21
46942;BME280;32676;52.630;4.896;2023-05-02T00:31:20;100845.00;;;10.26;76.22
46942;BME280;32676;52.630;4.896;2023-05-02T00:33:47;100831.06;;;10.24;75.91
46942;BME280;32676;52.630;4.896;2023-05-02T00:36:13;100825.84;;;10.23;75.96
46942;BME280;32676;52.630;4.896;2023-05-02T00:38:39;100805.81;;;10.18;75.90
46942;BME280;32676;52.630;4.896;2023-05-02T00:41:06;100801.53;;;10.16;75.60
46942;BME280;32676;52.630;4.896;2023-05-02T00:43:32;100796.28;;;10.16;75.71
46942;BME280;32676;52.630;4.896;2023-05-02T00:46:00;100801.59;;;10.14;75.70
46942;BME280;32676;52.630;4.896;2023-05-02T00:48:26;100784.16;;;10.12;75.80
46942;BME280;32676;52.630;4.896;2023-05-02T00:50:52;100787.69;;;10.11;75.72
46942;BME280;32676;52.630;4.896;2023-05-02T00:53:19;100769.47;;;10.06;75.69
46942;BME280;32676;52.630;4.896;2023-05-02T00:55:45;100763.34;;;10.06;75.53
46942;BME280;32676;52.630;4.896;2023-05-02T00:58:14;100786.00;;;10.10;75.48
46942;BME280;32676;52.630;4.896;2023-05-02T01:00:45;100796.38;;;10.13;75.57
46942;BME280;32676;52.630;4.896;2023-05-02T01:03:18;100796.38;;;10.13;75.36
46942;BME280;32676;52.630;4.896;2023-05-02T01:05:48;100796.38;;;10.13;75.26
46942;BME280;32676;52.630;4.896;2023-05-02T01:08:20;100801.63;;;10.13;75.14
46942;BME280;32676;52.630;4.896;2023-05-02T01:10:51;100789.41;;;10.12;74.93
46942;BME280;32676;52.630;4.896;2023-05-02T01:13:21;100791.13;;;10.13;75.23
46942;BME280;32676;52.630;4.896;2023-05-02T01:15:50;100783.34;;;10.10;75.04
46942;BME280;32676;52.630;4.896;2023-05-02T01:18:19;100789.50;;;10.09;74.95
46942;BME280;32676;52.630;4.896;2023-05-02T01:20:47;100786.88;;;10.09;75.17
46942;BME280;32676;52.630;4.896;2023-05-02T01:23:16;100782.56;;;10.08;74.80
46942;BME280;32676;52.630;4.896;2023-05-02T01:25:48;100783.44;;;10.07;74.91
46942;BME280;32676;52.630;4.896;2023-05-02T01:28:20;100782.56;;;10.08;74.66
46942;BME280;32676;52.630;4.896;2023-05-02T01:30:50;100773.84;;;10.06;74.56
46942;BME280;32676;52.630;4.896;2023-05-02T01:33:18;100769.56;;;10.03;74.60
46942;BME280;32676;52.630;4.896;2023-05-02T01:35:46;100754.78;;;10.01;74.67
46942;BME280;32676;52.630;4.896;2023-05-02T01:38:14;100749.59;;;9.97;74.62
46942;BME280;32676;52.630;4.896;2023-05-02T01:40:42;100740.94;;;9.95;74.54
46942;BME280;32676;52.630;4.896;2023-05-02T01:43:09;100747.03;;;9.96;74.63
46942;BME280;32676;52.630;4.896;2023-05-02T01:45:36;100747.88;;;9.96;74.75
46942;BME280;32676;52.630;4.896;2023-05-02T01:48:05;100733.94;;;9.94;74.70
46942;BME280;32676;52.630;4.896;2023-05-02T01:50:32;100710.53;;;9.88;74.58
46942;BME280;32676;52.630;4.896;2023-05-02T01:52:59;100708.78;;;9.87;74.88
46942;BME280;32676;52.630;4.896;2023-05-02T01:55:26;100697.50;;;9.85;74.97
46942;BME280;32676;52.630;4.896;2023-05-02T01:57:53;100693.16;;;9.84;75.11
46942;BME280;32676;52.630;4.896;2023-05-02T02:00:20;100658.47;;;9.74;75.08
46942;BME280;32676;52.630;4.896;2023-05-02T02:02:47;100648.94;;;9.72;75.17
46942;BME280;32676;52.630;4.896;2023-05-02T02:05:17;100628.94;;;9.68;75.09
46942;BME280;32676;52.630;4.896;2023-05-02T02:07:44;100628.13;;;9.66;75.12
46942;BME280;32676;52.630;4.896;2023-05-02T02:10:11;100621.13;;;9.66;74.99
46942;BME280;32676;52.630;4.896;2023-05-02T02:12:39;100614.19;;;9.64;75.09
46942;BME280;32676;52.630;4.896;2023-05-02T02:15:07;100624.69;;;9.64;74.95
46942;BME280;32676;52.630;4.896;2023-05-02T02:17:35;100622.06;;;9.64;75.31
46942;BME280;32676;52.630;4.896;2023-05-02T02:20:03;100609.06;;;9.60;75.27
46942;BME280;32676;52.630;4.896;2023-05-02T02:22:33;100602.09;;;9.59;75.28
46942;BME280;32676;52.630;4.896;2023-05-02T02:25:01;100589.13;;;9.55;75.51
46942;BME280;32676;52.630;4.896;2023-05-02T02:27:28;100586.56;;;9.53;75.47
46942;BME280;32676;52.630;4.896;2023-05-02T02:29:54;100560.50;;;9.47;75.54
46942;BME280;32676;52.630;4.896;2023-05-02T02:32:21;100545.78;;;9.43;75.77
46942;BME280;32676;52.630;4.896;2023-05-02T02:34:48;100550.16;;;9.44;75.82
46942;BME280;32676;52.630;4.896;2023-05-02T02:37:15;100542.31;;;9.43;75.81
46942;BME280;32676;52.630;4.896;2023-05-02T02:39:45;100547.56;;;9.43;75.87
46942;BME280;32676;52.630;4.896;2023-05-02T02:42:17;100551.03;;;9.43;75.79
46942;BME280;32676;52.630;4.896;2023-05-02T02:44:51;100555.38;;;9.44;75.92
46942;BME280;32676;52.630;4.896;2023-05-02T02:47:20;100538.00;;;9.40;75.79
46942;BME280;32676;52.630;4.896;2023-05-02T02:49:49;100540.63;;;9.40;75.89
46942;BME280;32676;52.630;4.896;2023-05-02T02:52:21;100547.63;;;9.41;75.76
46942;BME280;32676;52.630;4.896;2023-05-02T02:54:52;100553.66;;;9.43;76.07
46942;BME280;32676;52.630;4.896;2023-05-02T02:57:23;100564.06;;;9.46;75.91
46942;BME280;32676;52.630;4.896;2023-05-02T02:59:54;100551.94;;;9.42;75.94
46942;BME280;32676;52.630;4.896;2023-05-02T03:02:25;100548.50;;;9.40;76.09
46942;BME280;32676;52.630;4.896;2023-05-02T03:04:53;100553.66;;;9.43;76.19
46942;BME280;32676;52.630;4.896;2023-05-02T03:07:20;100548.50;;;9.40;76.16
46942;BME280;32676;52.630;4.896;2023-05-02T03:09:46;100553.75;;;9.40;76.12
46942;BME280;32676;52.630;4.896;2023-05-02T03:12:14;100555.47;;;9.41;76.16
46942;BME280;32676;52.630;4.896;2023-05-02T03:14:40;100540.69;;;9.38;76.11
46942;BME280;32676;52.630;4.896;2023-05-02T03:17:07;100543.38;;;9.37;76.14
46942;BME280;32676;52.630;4.896;2023-05-02T03:19:34;100536.41;;;9.36;75.72
46942;BME280;32676;52.630;4.896;2023-05-02T03:22:01;100519.91;;;9.32;75.47
46942;BME280;32676;52.630;4.896;2023-05-02T03:24:27;100517.34;;;9.31;75.28
46942;BME280;32676;52.630;4.896;2023-05-02T03:26:54;100500.00;;;9.27;75.25
46942;BME280;32676;52.630;4.896;2023-05-02T03:29:22;100500.00;;;9.27;74.79
46942;BME280;32676;52.630;4.896;2023-05-02T03:31:48;100502.63;;;9.27;74.44
46942;BME280;32676;52.630;4.896;2023-05-02T03:34:15;100499.16;;;9.26;74.08
46942;BME280;32676;52.630;4.896;2023-05-02T03:36:41;100487.91;;;9.22;73.83
46942;BME280;32676;52.630;4.896;2023-05-02T03:39:07;100475.78;;;9.18;73.94
46942;BME280;32676;52.630;4.896;2023-05-02T03:41:35;100467.09;;;9.16;73.80
46942;BME280;32676;52.630;4.896;2023-05-02T03:44:01;100466.22;;;9.17;73.73
46942;BME280;32676;52.630;4.896;2023-05-02T03:46:29;100481.03;;;9.18;73.59
46942;BME280;32676;52.630;4.896;2023-05-02T03:48:56;100474.09;;;9.17;73.32
46942;BME280;32676;52.630;4.896;2023-05-02T03:51:22;100475.78;;;9.18;73.04
46942;BME280;32676;52.630;4.896;2023-05-02T03:53:48;100466.25;;;9.16;72.89
46942;BME280;32676;52.630;4.896;2023-05-02T03:56:16;100469.72;;;9.16;72.47
46942;BME280;32676;52.630;4.896;2023-05-02T03:58:44;100456.75;;;9.13;72.29
46942;BME280;32676;52.630;4.896;2023-05-02T04:01:13;100444.63;;;9.09;72.35
46942;BME280;32676;52.630;4.896;2023-05-02T04:03:41;100423.78;;;9.06;72.34
46942;BME280;32676;52.630;4.896;2023-05-02T04:06:07;100409.97;;;9.01;72.35
46942;BME280;32676;52.630;4.896;2023-05-02T04:08:34;100382.25;;;8.94;72.41
46942;BME280;32676;52.630;4.896;2023-05-02T04:11:00;100373.56;;;8.92;72.67
46942;BME280;32676;52.630;4.896;2023-05-02T04:13:27;100374.41;;;8.92;72.90
46942;BME280;32676;52.630;4.896;2023-05-02T04:15:54;100359.75;;;8.87;73.23
46942;BME280;32676;52.630;4.896;2023-05-02T04:18:20;100368.44;;;8.89;73.42
46942;BME280;32676;52.630;4.896;2023-05-02T04:20:48;100378.81;;;8.92;73.42
46942;BME280;32676;52.630;4.896;2023-05-02T04:23:15;100386.69;;;8.92;73.31
46942;BME280;32676;52.630;4.896;2023-05-02T04:25:43;100377.09;;;8.91;73.23
46942;BME280;32676;52.630;4.896;2023-05-02T04:28:15;100368.44;;;8.89;72.84
46942;BME280;32676;52.630;4.896;2023-05-02T04:30:41;100368.44;;;8.89;72.80
46942;BME280;32676;52.630;4.896;2023-05-02T04:33:08;100375.41;;;8.90;72.52
46942;BME280;32676;52.630;4.896;2023-05-02T04:35:34;100391.13;;;8.90;71.95
46942;BME280;32676;52.630;4.896;2023-05-02T04:38:02;100389.19;;;8.95;72.01
46942;BME280;32676;52.630;4.896;2023-05-02T04:40:28;100390.09;;;8.94;71.91
46942;BME280;32676;52.630;4.896;2023-05-02T04:42:54;100404.91;;;8.95;71.75
46942;BME280;32676;52.630;4.896;2023-05-02T04:45:20;100405.78;;;8.95;71.65
46942;BME280;32676;52.630;4.896;2023-05-02T04:47:47;100413.59;;;8.97;70.99
46942;BME280;32676;52.630;4.896;2023-05-02T04:50:13;100408.34;;;8.97;70.83
46942;BME280;32676;52.630;4.896;2023-05-02T04:52:39;100413.59;;;8.97;70.38
46942;BME280;32676;52.630;4.896;2023-05-02T04:55:07;100403.19;;;8.94;69.85
46942;BME280;32676;52.630;4.896;2023-05-02T04:57:34;100398.81;;;8.94;69.67
46942;BME280;32676;52.630;4.896;2023-05-02T05:00:00;100391.13;;;8.90;69.40
46942;BME280;32676;52.630;4.896;2023-05-02T05:02:26;100373.75;;;8.86;69.78
46942;BME280;32676;52.630;4.896;2023-05-02T05:04:53;100353.00;;;8.79;70.43
46942;BME280;32676;52.630;4.896;2023-05-02T05:07:21;100335.69;;;8.75;71.28
46942;BME280;32676;52.630;4.896;2023-05-02T05:09:47;100302.75;;;8.68;72.10
46942;BME280;32676;52.630;4.896;2023-05-02T05:12:15;100294.09;;;8.66;72.88
46942;BME280;32676;52.630;4.896;2023-05-02T05:14:41;100286.28;;;8.64;73.40
46942;BME280;32676;52.630;4.896;2023-05-02T05:17:08;100280.22;;;8.62;73.67
46942;BME280;32676;52.630;4.896;2023-05-02T05:19:34;100281.97;;;8.62;73.99
46942;BME280;32676;52.630;4.896;2023-05-02T05:22:01;100297.59;;;8.65;73.95
46942;BME280;32676;52.630;4.896;2023-05-02T05:24:27;100298.44;;;8.65;73.94
46942;BME280;32676;52.630;4.896;2023-05-02T05:26:53;100301.94;;;8.66;73.43
46942;BME280;32676;52.630;4.896;2023-05-02T05:29:21;100313.22;;;8.68;73.16
46942;BME280;32676;52.630;4.896;2023-05-02T05:31:47;100296.75;;;8.64;72.79
46942;BME280;32676;52.630;4.896;2023-05-02T05:34:14;100295.03;;;8.63;72.54
46942;BME280;32676;52.630;4.896;2023-05-02T05:36:40;100301.09;;;8.64;72.32
46942;BME280;32676;52.630;4.896;2023-05-02T05:39:07;100291.56;;;8.63;72.08
46942;BME280;32676;52.630;4.896;2023-05-02T05:41:34;100313.31;;;8.65;71.93
46942;BME280;32676;52.630;4.896;2023-05-02T05:44:02;100316.72;;;8.67;71.65
46942;BME280;32676;52.630;4.896;2023-05-02T05:46:29;100354.91;;;8.74;71.88
46942;BME280;32676;52.630;4.896;2023-05-02T05:48:56;100377.38;;;8.81;71.64
46942;BME280;32676;52.630;4.896;2023-05-02T05:51:22;100406.00;;;8.88;71.68
46942;BME280;32676;52.630;4.896;2023-05-02T05:53:48;100424.25;;;8.91;71.28
46942;BME280;32676;52.630;4.896;2023-05-02T05:56:15;100428.56;;;8.93;71.12
46942;BME280;32676;52.630;4.896;2023-05-02T05:58:42;100438.91;;;8.96;70.94
46942;BME280;32676;52.630;4.896;2023-05-02T06:01:08;100459.78;;;8.99;70.81
46942;BME280;32676;52.630;4.896;2023-05-02T06:03:36;100471.03;;;9.03;70.86
46942;BME280;32676;52.630;4.896;2023-05-02T06:06:03;100491.91;;;9.06;70.81
46942;BME280;32676;52.630;4.896;2023-05-02T06:08:29;100505.72;;;9.11;70.74
46942;BME280;32676;52.630;4.896;2023-05-02T06:10:55;100538.69;;;9.18;70.81
46942;BME280;32676;52.630;4.896;2023-05-02T06:13:22;100576.84;;;9.29;70.30
46942;BME280;32676;52.630;4.896;2023-05-02T06:15:48;100588.13;;;9.31;69.72
46942;BME280;32676;52.630;4.896;2023-05-02T06:18:14;100601.16;;;9.34;68.75
46942;BME280;32676;52.630;4.896;2023-05-02T06:20:42;100616.81;;;9.37;67.42
46942;BME280;32676;52.630;4.896;2023-05-02T06:23:08;100613.34;;;9.35;66.34
46942;BME280;32676;52.630;4.896;2023-05-02T06:25:36;100609.84;;;9.36;65.88
46942;BME280;32676;52.630;4.896;2023-05-02T06:28:02;100642.81;;;9.43;65.70
46942;BME280;32676;52.630;4.896;2023-05-02T06:30:28;100657.56;;;9.47;65.17
46942;BME280;32676;52.630;4.896;2023-05-02T06:32:55;100678.41;;;9.52;64.63
46942;BME280;32676;52.630;4.896;2023-05-02T06:35:21;100703.59;;;9.57;64.08
46942;BME280;32676;52.630;4.896;2023-05-02T06:37:49;100723.59;;;9.61;63.79
46942;BME280;32676;52.630;4.896;2023-05-02T06:40:15;100752.25;;;9.68;63.35
46942;BME280;32676;52.630;4.896;2023-05-02T06:42:41;100774.78;;;9.75;62.88
46942;BME280;32676;52.630;4.896;2023-05-02T06:45:08;100806.94;;;9.82;62.19
46942;BME280;32676;52.630;4.896;2023-05-02T06:47:34;100809.53;;;9.83;61.55
46942;BME280;32676;52.630;4.896;2023-05-02T06:50:00;100819.94;;;9.86;61.33
46942;BME280;32676;52.630;4.896;2023-05-02T06:52:27;100835.59;;;9.89;61.14
46942;BME280;32676;52.630;4.896;2023-05-02T06:54:54;100865.19;;;9.94;60.90
46942;BME280;32676;52.630;4.896;2023-05-02T06:57:21;100868.63;;;9.96;60.45
46942;BME280;32676;52.630;4.896;2023-05-02T06:59:47;100889.53;;;9.99;60.06
46942;BME280;32676;52.630;4.896;2023-05-02T07:02:13;100892.19;;;9.99;60.03
46942;BME280;32676;52.630;4.896;2023-05-02T07:04:40;100903.50;;;10.02;59.91
46942;BME280;32676;52.630;4.896;2023-05-02T07:07:06;100910.34;;;10.06;60.18
46942;BME280;32676;52.630;4.896;2023-05-02T07:09:33;100988.63;;;10.24;60.58
46942;BME280;32676;52.630;4.896;2023-05-02T07:12:00;101047.81;;;10.37;60.41
46942;BME280;32676;52.630;4.896;2023-05-02T07:14:27;101093.03;;;10.49;60.09
46942;BME280;32676;52.630;4.896;2023-05-02T07:16:53;101124.38;;;10.55;59.83
46942;BME280;32676;52.630;4.896;2023-05-02T07:19:20;101146.97;;;10.62;59.50
46942;BME280;32676;52.630;4.896;2023-05-02T07:21:46;101170.50;;;10.67;58.99
46942;BME280;32676;52.630;4.896;2023-05-02T07:24:13;101189.66;;;10.72;58.93
46942;BME280;32676;52.630;4.896;2023-05-02T07:26:39;101192.28;;;10.72;58.14
46942;BME280;32676;52.630;4.896;2023-05-02T07:29:07;101195.72;;;10.74;57.73
46942;BME280;32676;52.630;4.896;2023-05-02T07:31:33;101185.28;;;10.71;57.33
46942;BME280;32676;52.630;4.896;2023-05-02T07:34:00;101197.50;;;10.73;57.73
46942;BME280;32676;52.630;4.896;2023-05-02T07:36:26;101206.19;;;10.75;57.89
46942;BME280;32676;52.630;4.896;2023-05-02T07:38:53;101187.09;;;10.69;57.82
46942;BME280;32676;52.630;4.896;2023-05-02T07:41:19;101172.28;;;10.66;57.38
46942;BME280;32676;52.630;4.896;2023-05-02T07:43:46;101139.22;;;10.57;56.90
46942;BME280;32676;52.630;4.896;2023-05-02T07:46:13;101134.84;;;10.56;56.58
46942;BME280;32676;52.630;4.896;2023-05-02T07:48:40;101130.53;;;10.55;56.71
46942;BME280;32676;52.630;4.896;2023-05-02T07:51:07;101150.50;;;10.61;56.36
46942;BME280;32676;52.630;4.896;2023-05-02T07:53:33;101155.78;;;10.61;56.58
46942;BME280;32676;52.630;4.896;2023-05-02T07:56:00;101153.13;;;10.61;56.04
46942;BME280;32676;52.630;4.896;2023-05-02T07:58:26;101155.78;;;10.61;55.98
46942;BME280;32676;52.630;4.896;2023-05-02T08:00:53;101180.16;;;10.66;55.42
46942;BME280;32676;52.630;4.896;2023-05-02T08:03:20;101203.69;;;10.71;54.59
46942;BME280;32676;52.630;4.896;2023-05-02T08:05:47;101181.88;;;10.67;54.04
46942;BME280;32676;52.630;4.896;2023-05-02T08:08:13;101190.56;;;10.69;54.01
46942;BME280;32676;52.630;4.896;2023-05-02T08:10:39;101208.00;;;10.73;53.97
46942;BME280;32676;52.630;4.896;2023-05-02T08:13:06;101208.00;;;10.73;53.72
46942;BME280;32676;52.630;4.896;2023-05-02T08:15:32;101210.63;;;10.73;53.58
46942;BME280;32676;52.630;4.896;2023-05-02T08:17:59;101261.13;;;10.86;53.40
46942;BME280;32676;52.630;4.896;2023-05-02T08:20:26;101316.91;;;10.98;53.72
46942;BME280;32676;52.630;4.896;2023-05-02T08:22:52;101335.19;;;11.02;53.04
46942;BME280;32676;52.630;4.896;2023-05-02T08:25:19;101328.22;;;11.01;52.20
46942;BME280;32676;52.630;4.896;2023-05-02T08:27:45;101340.38;;;11.05;52.03
46942;BME280;32676;52.630;4.896;2023-05-02T08:30:12;101371.78;;;11.11;51.70
46942;BME280;32676;52.630;4.896;2023-05-02T08:32:38;101394.47;;;11.16;51.85
46942;BME280;32676;52.630;4.896;2023-05-02T08:35:05;101394.38;;;11.19;51.58
46942;BME280;32676;52.630;4.896;2023-05-02T08:37:33;101413.63;;;11.21;51.73
46942;BME280;32676;52.630;4.896;2023-05-02T08:40:00;101375.22;;;11.13;51.62
46942;BME280;32676;52.630;4.896;2023-05-02T08:42:26;101370.03;;;11.10;51.61
46942;BME280;32676;52.630;4.896;2023-05-02T08:44:53;101361.34;;;11.08;51.57
46942;BME280;32676;52.630;4.896;2023-05-02T08:47:20;101335.19;;;11.02;51.20
46942;BME280;32676;52.630;4.896;2023-05-02T08:49:48;101356.16;;;11.05;51.21
46942;BME280;32676;52.630;4.896;2023-05-02T08:52:15;101378.75;;;11.12;51.17
46942;BME280;32676;52.630;4.896;2023-05-02T08:54:44;101444.16;;;11.28;51.08
46942;BME280;32676;52.630;4.896;2023-05-02T08:57:10;101465.91;;;11.33;50.82
46942;BME280;32676;52.630;4.896;2023-05-02T08:59:36;101489.50;;;11.38;50.24
46942;BME280;32676;52.630;4.896;2023-05-02T09:02:04;101533.97;;;11.48;49.89
46942;BME280;32676;52.630;4.896;2023-05-02T09:04:33;101549.69;;;11.51;49.92
46942;BME280;32676;52.630;4.896;2023-05-02T09:07:04;101583.69;;;11.61;49.45
46942;BME280;32676;52.630;4.896;2023-05-02T09:09:30;101666.56;;;11.80;48.71
46942;BME280;32676;52.630;4.896;2023-05-02T09:12:00;101731.13;;;11.98;48.62
46942;BME280;32676;52.630;4.896;2023-05-02T09:14:27;101760.84;;;12.05;48.76
46942;BME280;32676;52.630;4.896;2023-05-02T09:16:57;101728.50;;;11.98;48.18
46942;BME280;32676;52.630;4.896;2023-05-02T09:19:23;101719.84;;;11.93;47.66
46942;BME280;32676;52.630;4.896;2023-05-02T09:21:52;101695.38;;;11.88;47.91
46942;BME280;32676;52.630;4.896;2023-05-02T09:24:24;101691.84;;;11.87;48.14
46942;BME280;32676;52.630;4.896;2023-05-02T09:26:55;101675.22;;;11.85;48.22
46942;BME280;32676;52.630;4.896;2023-05-02T09:29:23;101671.81;;;11.80;48.56
46942;BME280;32676;52.630;4.896;2023-05-02T09:31:50;101675.28;;;11.82;48.35
46942;BME280;32676;52.630;4.896;2023-05-02T09:34:16;101720.72;;;11.94;48.06
46942;BME280;32676;52.630;4.896;2023-05-02T09:36:43;101733.78;;;11.98;47.73
46942;BME280;32676;52.630;4.896;2023-05-02T09:39:11;101766.13;;;12.05;47.93
46942;BME280;32676;52.630;4.896;2023-05-02T09:41:38;101773.09;;;12.06;48.42
46942;BME280;32676;52.630;4.896;2023-05-02T09:44:04;101771.38;;;12.05;48.04
46942;BME280;32676;52.630;4.896;2023-05-02T09:46:39;101760.84;;;12.05;48.19
46942;BME280;32676;52.630;4.896;2023-05-02T09:49:06;101743.41;;;11.99;47.99
46942;BME280;32676;52.630;4.896;2023-05-02T09:51:33;101728.59;;;11.95;47.62
46942;BME280;32676;52.630;4.896;2023-05-02T09:54:00;101727.72;;;11.95;47.72
46942;BME280;32676;52.630;4.896;2023-05-02T09:56:26;101794.06;;;12.12;48.05
46942;BME280;32676;52.630;4.896;2023-05-02T09:58:59;101870.94;;;12.29;47.81
46942;BME280;32676;52.630;4.896;2023-05-02T10:01:36;101905.91;;;12.38;47.13
46942;BME280;32676;52.630;4.896;2023-05-02T10:04:04;101946.06;;;12.49;47.29
46942;BME280;32676;52.630;4.896;2023-05-02T10:06:30;102028.31;;;12.66;46.24
46942;BME280;32676;52.630;4.896;2023-05-02T10:08:57;102121.00;;;12.90;46.38
46942;BME280;32676;52.630;4.896;2023-05-02T10:11:24;102192.75;;;13.07;46.67
46942;BME280;32676;52.630;4.896;2023-05-02T10:13:50;102289.09;;;13.30;46.18
46942;BME280;32676;52.630;4.896;2023-05-02T10:16:19;102275.09;;;13.25;45.11
46942;BME280;32676;52.630;4.896;2023-05-02T10:18:51;102203.28;;;13.09;45.42
46942;BME280;32676;52.630;4.896;2023-05-02T10:21:24;102126.28;;;12.90;44.65
46942;BME280;32676;52.630;4.896;2023-05-02T10:23:51;102031.78;;;12.68;44.97
46942;BME280;32676;52.630;4.896;2023-05-02T10:26:18;101968.81;;;12.53;45.53
46942;BME280;32676;52.630;4.896;2023-05-02T10:28:45;101961.81;;;12.52;45.68
46942;BME280;32676;52.630;4.896;2023-05-02T10:31:12;101988.97;;;12.57;46.11
46942;BME280;32676;52.630;4.896;2023-05-02T10:33:39;101984.56;;;12.56;46.09
46942;BME280;32676;52.630;4.896;2023-05-02T10:36:07;101981.09;;;12.56;46.38
46942;BME280;32676;52.630;4.896;2023-05-02T10:38:35;101937.31;;;12.47;46.89
46942;BME280;32676;52.630;4.896;2023-05-02T10:41:03;101886.69;;;12.33;46.96
46942;BME280;32676;52.630;4.896;2023-05-02T10:43:33;101877.06;;;12.32;47.58
46942;BME280;32676;52.630;4.896;2023-05-02T10:46:00;101922.53;;;12.41;47.49
46942;BME280;32676;52.630;4.896;2023-05-02T10:48:27;101947.00;;;12.48;47.82
46942;BME280;32676;52.630;4.896;2023-05-02T10:50:54;101925.13;;;12.43;47.27
46942;BME280;32676;52.630;4.896;2023-05-02T10:53:21;101970.56;;;12.54;47.83
46942;BME280;32676;52.630;4.896;2023-05-02T10:58:30;102054.53;;;12.73;47.04
46942;BME280;32676;52.630;4.896;2023-05-02T11:06:19;102097.38;;;12.84;47.79
46942;BME280;32676;52.630;4.896;2023-05-02T11:08:50;102136.75;;;12.93;47.60
46942;BME280;32676;52.630;4.896;2023-05-02T11:14:03;102201.50;;;13.10;46.90
46942;BME280;32676;52.630;4.896;2023-05-02T11:19:11;102149.91;;;12.95;47.73
46942;BME280;32676;52.630;4.896;2023-05-02T11:21:37;102147.25;;;12.96;48.17
46942;BME280;32676;52.630;4.896;2023-05-02T11:26:49;102086.88;;;12.82;47.82
46942;BME280;32676;52.630;4.896;2023-05-02T11:29:24;102087.78;;;12.80;47.38
46942;BME280;32676;52.630;4.896;2023-05-02T11:32:10;102122.81;;;12.88;47.07
46942;BME280;32676;52.630;4.896;2023-05-02T11:34:40;102110.50;;;12.87;46.55
46942;BME280;32676;52.630;4.896;2023-05-02T11:37:11;102130.63;;;12.93;46.33
46942;BME280;32676;52.630;4.896;2023-05-02T11:39:37;102198.03;;;13.07;45.46
46942;BME280;32676;52.630;4.896;2023-05-02T11:42:04;102282.09;;;13.26;45.04
46942;BME280;32676;52.630;4.896;2023-05-02T11:44:31;102291.75;;;13.29;44.73
46942;BME280;32676;52.630;4.896;2023-05-02T11:46:58;102267.19;;;13.25;44.62
46942;BME280;32676;52.630;4.896;2023-05-02T11:49:25;102296.13;;;13.31;44.76
46942;BME280;32676;52.630;4.896;2023-05-02T11:51:52;102295.22;;;13.32;45.26
46942;BME280;32676;52.630;4.896;2023-05-02T11:54:18;102289.09;;;13.30;45.57
46942;BME280;32676;52.630;4.896;2023-05-02T11:56:45;102324.13;;;13.38;45.83
46942;BME280;32676;52.630;4.896;2023-05-02T11:59:12;102340.78;;;13.42;45.30
46942;BME280;32676;52.630;4.896;2023-05-02T12:01:47;102391.59;;;13.55;45.74
46942;BME280;32676;52.630;4.896;2023-05-02T12:04:13;102436.31;;;13.64;46.12
46942;BME280;32676;52.630;4.896;2023-05-02T12:06:43;102384.63;;;13.52;45.90
46942;BME280;32676;52.630;4.896;2023-05-02T12:09:19;102368.81;;;13.49;46.27
46942;BME280;32676;52.630;4.896;2023-05-02T12:11:50;102354.81;;;13.46;46.73
46942;BME280;32676;52.630;4.896;2023-05-02T12:14:16;102382.84;;;13.53;46.84
46942;BME280;32676;52.630;4.896;2023-05-02T12:16:43;102426.66;;;13.63;47.29
46942;BME280;32676;52.630;4.896;2023-05-02T12:19:11;102389.88;;;13.54;47.05
46942;BME280;32676;52.630;4.896;2023-05-02T12:21:38;102336.44;;;13.39;46.48
46942;BME280;32676;52.630;4.896;2023-05-02T12:24:05;102317.13;;;13.37;46.90
46942;BME280;32676;52.630;4.896;2023-05-02T12:26:31;102336.41;;;13.42;46.87
46942;BME280;32676;52.630;4.896;2023-05-02T12:28:58;102332.91;;;13.40;46.80
46942;BME280;32676;52.630;4.896;2023-05-02T12:31:26;102330.25;;;13.40;46.88
46942;BME280;32676;52.630;4.896;2023-05-02T12:33:55;102352.16;;;13.46;46.86
46942;BME280;32676;52.630;4.896;2023-05-02T12:36:24;102344.31;;;13.42;46.83
46942;BME280;32676;52.630;4.896;2023-05-02T12:38:53;102364.41;;;13.50;46.74
46942;BME280;32676;52.630;4.896;2023-05-02T12:41:31;102342.53;;;13.43;46.22
46942;BME280;32676;52.630;4.896;2023-05-02T12:43:57;102358.31;;;13.46;46.53
46942;BME280;32676;52.630;4.896;2023-05-02T12:46:24;102359.19;;;13.47;46.62
46942;BME280;32676;52.630;4.896;2023-05-02T12:49:00;102332.91;;;13.40;46.72
46942;BME280;32676;52.630;4.896;2023-05-02T12:51:27;102282.06;;;13.29;46.54
46942;BME280;32676;52.630;4.896;2023-05-02T12:53:55;102269.81;;;13.25;46.70
46942;BME280;32676;52.630;4.896;2023-05-02T12:56:21;102252.31;;;13.21;46.31
46942;BME280;32676;52.630;4.896;2023-05-02T12:58:48;102205.88;;;13.11;46.03
46942;BME280;32676;52.630;4.896;2023-05-02T13:01:15;102163.03;;;12.99;46.30
46942;BME280;32676;52.630;4.896;2023-05-02T13:03:42;102140.31;;;12.92;45.96
46942;BME280;32676;52.630;4.896;2023-05-02T13:06:10;102189.28;;;13.05;46.13
46942;BME280;32676;52.630;4.896;2023-05-02T13:08:37;102246.16;;;13.20;46.26
46942;BME280;32676;52.630;4.896;2023-05-02T13:11:04;102324.13;;;13.38;46.13
46942;BME280;32676;52.630;4.896;2023-05-02T13:13:30;102416.16;;;13.60;45.87